sensor_id;sensor_type;location;lat;lon;timestamp;P1;durP1;ratioP1;P2;durP2;ratioP2
7195;SDS011;3639;51.308;5.624;2022-09-09T00:02:08;2.30;;;1.30;;
7195;SDS011;3639;51.308;5.624;2022-09-09T00:07:20;1.73;;;1.30;;
7195;SDS011;3639;51.308;5.624;2022-09-09T00:12:36;1.33;;;1.10;;
7195;SDS011;3639;51.308;5.624;2022-09-09T00:15:20;2.30;;;1.30;;
7195;SDS011;3639;51.308;5.624;2022-09-09T00:17:52;1.73;;;1.37;;
7195;SDS011;3639;51.308;5.624;2022-09-09T00:20:32;1.40;;;1.30;;
7195;SDS011;3639;51.308;5.624;2022-09-09T00:23:12;3.07;;;1.57;;
7195;SDS011;3639;51.308;5.624;2022-09-09T00:28:29;2.10;;;1.10;;
7195;SDS011;3639;51.308;5.624;2022-09-09T00:31:01;2.63;;;1.20;;
7195;SDS011;3639;51.308;5.624;2022-09-09T00:33:37;4.13;;;1.60;;
7195;SDS011;3639;51.308;5.624;2022-09-09T00:36:04;3.00;;;1.50;;
7195;SDS011;3639;51.308;5.624;2022-09-09T00:38:49;5.00;;;1.47;;
7195;SDS011;3639;51.308;5.624;2022-09-09T00:44:03;1.50;;;1.40;;
7195;SDS011;3639;51.308;5.624;2022-09-09T00:46:41;3.17;;;1.40;;
7195;SDS011;3639;51.308;5.624;2022-09-09T00:52:23;5.70;;;1.70;;
7195;SDS011;3639;51.308;5.624;2022-09-09T00:55:07;2.17;;;1.57;;
7195;SDS011;3639;51.308;5.624;2022-09-09T00:57:34;1.97;;;1.60;;
7195;SDS011;3639;51.308;5.624;2022-09-09T01:00:20;1.97;;;1.60;;
7195;SDS011;3639;51.308;5.624;2022-09-09T01:03:04;1.57;;;1.47;;
7195;SDS011;3639;51.308;5.624;2022-09-09T01:10:59;2.13;;;1.70;;
7195;SDS011;3639;51.308;5.624;2022-09-09T01:13:31;1.83;;;1.60;;
7195;SDS011;3639;51.308;5.624;2022-09-09T01:15:59;8.07;;;1.90;;
7195;SDS011;3639;51.308;5.624;2022-09-09T01:18:32;2.47;;;1.60;;
7195;SDS011;3639;51.308;5.624;2022-09-09T01:21:04;2.13;;;1.93;;
7195;SDS011;3639;51.308;5.624;2022-09-09T01:23:57;1.60;;;1.50;;
7195;SDS011;3639;51.308;5.624;2022-09-09T01:26:48;1.80;;;1.70;;
7195;SDS011;3639;51.308;5.624;2022-09-09T01:29:17;3.47;;;1.70;;
7195;SDS011;3639;51.308;5.624;2022-09-09T01:31:59;1.73;;;1.50;;
7195;SDS011;3639;51.308;5.624;2022-09-09T01:34:29;2.83;;;1.87;;
7195;SDS011;3639;51.308;5.624;2022-09-09T01:36:59;2.97;;;2.10;;
7195;SDS011;3639;51.308;5.624;2022-09-09T01:39:34;1.77;;;1.43;;
7195;SDS011;3639;51.308;5.624;2022-09-09T01:42:02;5.93;;;1.90;;
7195;SDS011;3639;51.308;5.624;2022-09-09T01:44:30;2.20;;;1.67;;
7195;SDS011;3639;51.308;5.624;2022-09-09T01:46:56;2.17;;;1.87;;
7195;SDS011;3639;51.308;5.624;2022-09-09T01:49:22;2.73;;;1.57;;
7195;SDS011;3639;51.308;5.624;2022-09-09T01:51:55;3.30;;;1.80;;
7195;SDS011;3639;51.308;5.624;2022-09-09T01:54:21;2.37;;;1.70;;
7195;SDS011;3639;51.308;5.624;2022-09-09T02:02:32;1.63;;;1.53;;
7195;SDS011;3639;51.308;5.624;2022-09-09T02:05:19;2.97;;;2.10;;
7195;SDS011;3639;51.308;5.624;2022-09-09T02:07:59;12.40;;;2.03;;
7195;SDS011;3639;51.308;5.624;2022-09-09T02:10:42;6.50;;;1.80;;
7195;SDS011;3639;51.308;5.624;2022-09-09T02:13:13;2.87;;;1.60;;
7195;SDS011;3639;51.308;5.624;2022-09-09T02:19:02;5.00;;;1.50;;
7195;SDS011;3639;51.308;5.624;2022-09-09T02:21:38;3.30;;;1.83;;
7195;SDS011;3639;51.308;5.624;2022-09-09T02:24:07;3.13;;;1.90;;
7195;SDS011;3639;51.308;5.624;2022-09-09T02:26:35;2.67;;;1.80;;
7195;SDS011;3639;51.308;5.624;2022-09-09T02:29:06;1.67;;;1.57;;
7195;SDS011;3639;51.308;5.624;2022-09-09T02:31:34;2.00;;;1.60;;
7195;SDS011;3639;51.308;5.624;2022-09-09T02:34:01;2.77;;;1.63;;
7195;SDS011;3639;51.308;5.624;2022-09-09T02:36:31;2.63;;;1.93;;
7195;SDS011;3639;51.308;5.624;2022-09-09T02:38:59;1.87;;;1.60;;
7195;SDS011;3639;51.308;5.624;2022-09-09T02:41:26;4.80;;;2.07;;
7195;SDS011;3639;51.308;5.624;2022-09-09T02:44:02;2.63;;;1.70;;
7195;SDS011;3639;51.308;5.624;2022-09-09T02:46:40;5.27;;;1.50;;
7195;SDS011;3639;51.308;5.624;2022-09-09T02:58:13;3.83;;;2.00;;
7195;SDS011;3639;51.308;5.624;2022-09-09T03:00:42;2.33;;;1.90;;
7195;SDS011;3639;51.308;5.624;2022-09-09T03:03:10;2.90;;;1.83;;
7195;SDS011;3639;51.308;5.624;2022-09-09T03:05:36;3.77;;;2.10;;
7195;SDS011;3639;51.308;5.624;2022-09-09T03:08:03;3.87;;;2.83;;
7195;SDS011;3639;51.308;5.624;2022-09-09T03:10:30;2.33;;;1.90;;
7195;SDS011;3639;51.308;5.624;2022-09-09T03:12:56;3.13;;;2.30;;
7195;SDS011;3639;51.308;5.624;2022-09-09T03:15:22;2.27;;;2.07;;
7195;SDS011;3639;51.308;5.624;2022-09-09T03:17:48;7.20;;;1.93;;
7195;SDS011;3639;51.308;5.624;2022-09-09T03:20:13;2.37;;;2.03;;
7195;SDS011;3639;51.308;5.624;2022-09-09T03:22:39;2.97;;;2.03;;
7195;SDS011;3639;51.308;5.624;2022-09-09T03:25:05;4.60;;;2.00;;
7195;SDS011;3639;51.308;5.624;2022-09-09T03:27:31;2.37;;;2.00;;
7195;SDS011;3639;51.308;5.624;2022-09-09T03:29:57;4.13;;;2.07;;
7195;SDS011;3639;51.308;5.624;2022-09-09T03:32:23;5.43;;;1.90;;
7195;SDS011;3639;51.308;5.624;2022-09-09T03:34:50;6.27;;;2.63;;
7195;SDS011;3639;51.308;5.624;2022-09-09T03:37:17;6.67;;;2.40;;
7195;SDS011;3639;51.308;5.624;2022-09-09T03:39:43;3.97;;;2.27;;
7195;SDS011;3639;51.308;5.624;2022-09-09T03:42:11;4.17;;;2.57;;
7195;SDS011;3639;51.308;5.624;2022-09-09T03:44:39;2.90;;;1.93;;
7195;SDS011;3639;51.308;5.624;2022-09-09T03:47:05;6.30;;;2.10;;
7195;SDS011;3639;51.308;5.624;2022-09-09T03:49:31;2.93;;;2.03;;
7195;SDS011;3639;51.308;5.624;2022-09-09T03:51:56;4.30;;;2.47;;
7195;SDS011;3639;51.308;5.624;2022-09-09T03:54:24;3.33;;;2.43;;
7195;SDS011;3639;51.308;5.624;2022-09-09T03:56:50;3.67;;;2.30;;
7195;SDS011;3639;51.308;5.624;2022-09-09T03:59:16;2.70;;;1.67;;
7195;SDS011;3639;51.308;5.624;2022-09-09T04:01:41;2.87;;;2.00;;
7195;SDS011;3639;51.308;5.624;2022-09-09T04:04:07;4.80;;;2.30;;
7195;SDS011;3639;51.308;5.624;2022-09-09T04:06:34;2.67;;;1.90;;
7195;SDS011;3639;51.308;5.624;2022-09-09T04:09:00;3.73;;;2.00;;
7195;SDS011;3639;51.308;5.624;2022-09-09T04:11:27;2.83;;;1.83;;
7195;SDS011;3639;51.308;5.624;2022-09-09T04:13:53;5.23;;;2.10;;
7195;SDS011;3639;51.308;5.624;2022-09-09T04:16:18;6.93;;;1.90;;
7195;SDS011;3639;51.308;5.624;2022-09-09T04:18:45;6.40;;;2.33;;
7195;SDS011;3639;51.308;5.624;2022-09-09T04:21:10;4.27;;;2.00;;
7195;SDS011;3639;51.308;5.624;2022-09-09T04:23:37;3.53;;;1.97;;
7195;SDS011;3639;51.308;5.624;2022-09-09T04:26:05;2.53;;;2.10;;
7195;SDS011;3639;51.308;5.624;2022-09-09T04:28:31;4.20;;;1.60;;
7195;SDS011;3639;51.308;5.624;2022-09-09T04:31:31;4.07;;;2.13;;
7195;SDS011;3639;51.308;5.624;2022-09-09T04:33:50;3.97;;;1.80;;
7195;SDS011;3639;51.308;5.624;2022-09-09T04:36:17;5.60;;;1.83;;
7195;SDS011;3639;51.308;5.624;2022-09-09T04:38:44;2.80;;;2.07;;
7195;SDS011;3639;51.308;5.624;2022-09-09T04:41:10;10.50;;;2.30;;
7195;SDS011;3639;51.308;5.624;2022-09-09T04:43:37;3.77;;;2.10;;
7195;SDS011;3639;51.308;5.624;2022-09-09T04:46:03;4.73;;;1.93;;
7195;SDS011;3639;51.308;5.624;2022-09-09T04:48:29;5.30;;;1.93;;
7195;SDS011;3639;51.308;5.624;2022-09-09T04:53:23;3.63;;;2.07;;
7195;SDS011;3639;51.308;5.624;2022-09-09T04:55:50;3.43;;;2.03;;
7195;SDS011;3639;51.308;5.624;2022-09-09T04:58:16;8.90;;;1.77;;
7195;SDS011;3639;51.308;5.624;2022-09-09T05:00:42;4.97;;;1.70;;
7195;SDS011;3639;51.308;5.624;2022-09-09T05:03:07;2.47;;;2.13;;
7195;SDS011;3639;51.308;5.624;2022-09-09T05:05:33;3.83;;;1.90;;
7195;SDS011;3639;51.308;5.624;2022-09-09T05:08:03;6.00;;;1.97;;
7195;SDS011;3639;51.308;5.624;2022-09-09T05:10:31;3.80;;;1.93;;
7195;SDS011;3639;51.308;5.624;2022-09-09T05:12:57;4.40;;;1.90;;
7195;SDS011;3639;51.308;5.624;2022-09-09T05:15:23;7.47;;;2.10;;
7195;SDS011;3639;51.308;5.624;2022-09-09T05:17:49;5.30;;;2.00;;
7195;SDS011;3639;51.308;5.624;2022-09-09T05:20:17;5.57;;;1.90;;
7195;SDS011;3639;51.308;5.624;2022-09-09T05:22:43;3.07;;;1.90;;
7195;SDS011;3639;51.308;5.624;2022-09-09T05:25:09;4.67;;;2.20;;
7195;SDS011;3639;51.308;5.624;2022-09-09T05:27:34;7.13;;;2.40;;
7195;SDS011;3639;51.308;5.624;2022-09-09T05:30:00;2.33;;;2.00;;
7195;SDS011;3639;51.308;5.624;2022-09-09T05:32:26;3.27;;;2.23;;
7195;SDS011;3639;51.308;5.624;2022-09-09T05:34:52;5.83;;;2.30;;
7195;SDS011;3639;51.308;5.624;2022-09-09T05:37:18;5.43;;;2.20;;
7195;SDS011;3639;51.308;5.624;2022-09-09T05:39:44;3.97;;;2.03;;
7195;SDS011;3639;51.308;5.624;2022-09-09T05:42:09;2.43;;;2.23;;
7195;SDS011;3639;51.308;5.624;2022-09-09T05:44:35;7.40;;;2.50;;
7195;SDS011;3639;51.308;5.624;2022-09-09T05:47:02;5.77;;;2.60;;
7195;SDS011;3639;51.308;5.624;2022-09-09T05:49:27;5.20;;;2.60;;
7195;SDS011;3639;51.308;5.624;2022-09-09T05:51:53;5.83;;;2.47;;
7195;SDS011;3639;51.308;5.624;2022-09-09T05:54:19;7.23;;;2.70;;
7195;SDS011;3639;51.308;5.624;2022-09-09T05:56:44;4.20;;;2.50;;
7195;SDS011;3639;51.308;5.624;2022-09-09T05:59:10;3.13;;;2.00;;
7195;SDS011;3639;51.308;5.624;2022-09-09T06:01:37;2.93;;;1.97;;
7195;SDS011;3639;51.308;5.624;2022-09-09T06:04:05;7.83;;;2.63;;
7195;SDS011;3639;51.308;5.624;2022-09-09T06:06:32;6.60;;;2.63;;
7195;SDS011;3639;51.308;5.624;2022-09-09T06:09:04;6.73;;;2.40;;
7195;SDS011;3639;51.308;5.624;2022-09-09T06:11:34;5.77;;;2.70;;
7195;SDS011;3639;51.308;5.624;2022-09-09T06:14:01;6.57;;;2.37;;
7195;SDS011;3639;51.308;5.624;2022-09-09T06:16:28;5.30;;;2.07;;
7195;SDS011;3639;51.308;5.624;2022-09-09T06:18:54;3.27;;;2.20;;
7195;SDS011;3639;51.308;5.624;2022-09-09T06:23:50;3.93;;;2.57;;
7195;SDS011;3639;51.308;5.624;2022-09-09T06:26:26;7.30;;;2.70;;
7195;SDS011;3639;51.308;5.624;2022-09-09T06:28:59;7.80;;;2.97;;
7195;SDS011;3639;51.308;5.624;2022-09-09T06:31:27;3.87;;;2.20;;
7195;SDS011;3639;51.308;5.624;2022-09-09T06:33:58;5.80;;;2.20;;
7195;SDS011;3639;51.308;5.624;2022-09-09T06:36:26;8.43;;;2.73;;
7195;SDS011;3639;51.308;5.624;2022-09-09T06:38:53;4.17;;;2.37;;
7195;SDS011;3639;51.308;5.624;2022-09-09T06:41:19;3.40;;;1.90;;
7195;SDS011;3639;51.308;5.624;2022-09-09T06:43:46;4.83;;;2.30;;
7195;SDS011;3639;51.308;5.624;2022-09-09T06:46:16;4.10;;;2.30;;
7195;SDS011;3639;51.308;5.624;2022-09-09T06:48:43;2.20;;;2.00;;
7195;SDS011;3639;51.308;5.624;2022-09-09T06:53:39;7.23;;;2.17;;
7195;SDS011;3639;51.308;5.624;2022-09-09T06:56:20;5.33;;;2.10;;
7195;SDS011;3639;51.308;5.624;2022-09-09T06:58:48;2.07;;;1.70;;
7195;SDS011;3639;51.308;5.624;2022-09-09T07:01:16;3.73;;;1.87;;
7195;SDS011;3639;51.308;5.624;2022-09-09T07:03:44;5.43;;;2.17;;
7195;SDS011;3639;51.308;5.624;2022-09-09T07:06:14;5.80;;;1.80;;
7195;SDS011;3639;51.308;5.624;2022-09-09T07:08:44;1.80;;;1.70;;
7195;SDS011;3639;51.308;5.624;2022-09-09T07:11:13;2.77;;;1.87;;
7195;SDS011;3639;51.308;5.624;2022-09-09T07:13:39;3.97;;;1.87;;
7195;SDS011;3639;51.308;5.624;2022-09-09T07:16:05;2.40;;;1.70;;
7195;SDS011;3639;51.308;5.624;2022-09-09T07:18:32;3.67;;;1.70;;
7195;SDS011;3639;51.308;5.624;2022-09-09T07:20:59;3.03;;;1.97;;
7195;SDS011;3639;51.308;5.624;2022-09-09T07:23:26;5.13;;;2.27;;
7195;SDS011;3639;51.308;5.624;2022-09-09T07:25:51;2.37;;;1.40;;
7195;SDS011;3639;51.308;5.624;2022-09-09T07:28:17;4.27;;;1.57;;
7195;SDS011;3639;51.308;5.624;2022-09-09T07:30:52;1.53;;;1.40;;
7195;SDS011;3639;51.308;5.624;2022-09-09T07:33:22;4.87;;;1.80;;
7195;SDS011;3639;51.308;5.624;2022-09-09T07:35:49;2.57;;;1.30;;
7195;SDS011;3639;51.308;5.624;2022-09-09T07:38:14;3.90;;;1.40;;
7195;SDS011;3639;51.308;5.624;2022-09-09T07:40:40;3.70;;;1.60;;
7195;SDS011;3639;51.308;5.624;2022-09-09T07:43:06;8.17;;;1.80;;
7195;SDS011;3639;51.308;5.624;2022-09-09T07:45:33;6.33;;;2.23;;
7195;SDS011;3639;51.308;5.624;2022-09-09T07:47:59;4.43;;;1.73;;
7195;SDS011;3639;51.308;5.624;2022-09-09T07:50:25;2.00;;;1.20;;
7195;SDS011;3639;51.308;5.624;2022-09-09T07:52:51;2.87;;;1.80;;
7195;SDS011;3639;51.308;5.624;2022-09-09T07:55:18;3.17;;;1.40;;
7195;SDS011;3639;51.308;5.624;2022-09-09T07:57:44;6.50;;;1.80;;
7195;SDS011;3639;51.308;5.624;2022-09-09T08:00:10;2.83;;;1.30;;
7195;SDS011;3639;51.308;5.624;2022-09-09T08:02:37;2.43;;;1.60;;
7195;SDS011;3639;51.308;5.624;2022-09-09T08:05:02;2.27;;;1.30;;
7195;SDS011;3639;51.308;5.624;2022-09-09T08:07:28;2.23;;;1.30;;
7195;SDS011;3639;51.308;5.624;2022-09-09T08:09:54;4.70;;;1.50;;
7195;SDS011;3639;51.308;5.624;2022-09-09T08:12:20;2.80;;;1.27;;
7195;SDS011;3639;51.308;5.624;2022-09-09T08:14:46;3.07;;;1.40;;
7195;SDS011;3639;51.308;5.624;2022-09-09T08:17:13;4.97;;;1.37;;
7195;SDS011;3639;51.308;5.624;2022-09-09T08:19:39;1.87;;;1.40;;
7195;SDS011;3639;51.308;5.624;2022-09-09T08:22:05;3.27;;;1.30;;
7195;SDS011;3639;51.308;5.624;2022-09-09T08:24:31;3.40;;;1.57;;
7195;SDS011;3639;51.308;5.624;2022-09-09T08:26:56;1.07;;;0.97;;
7195;SDS011;3639;51.308;5.624;2022-09-09T08:29:22;5.57;;;1.50;;
7195;SDS011;3639;51.308;5.624;2022-09-09T08:31:55;2.47;;;1.40;;
7195;SDS011;3639;51.308;5.624;2022-09-09T08:34:22;2.37;;;1.43;;
7195;SDS011;3639;51.308;5.624;2022-09-09T08:36:49;6.77;;;1.60;;
7195;SDS011;3639;51.308;5.624;2022-09-09T08:39:16;4.57;;;1.53;;
7195;SDS011;3639;51.308;5.624;2022-09-09T08:41:48;2.63;;;1.40;;
7195;SDS011;3639;51.308;5.624;2022-09-09T08:50:33;3.20;;;1.30;;
7195;SDS011;3639;51.308;5.624;2022-09-09T08:53:04;2.90;;;1.30;;
7195;SDS011;3639;51.308;5.624;2022-09-09T08:55:54;1.60;;;1.20;;
7195;SDS011;3639;51.308;5.624;2022-09-09T08:58:31;6.67;;;1.97;;
7195;SDS011;3639;51.308;5.624;2022-09-09T09:11:08;2.07;;;1.20;;
7195;SDS011;3639;51.308;5.624;2022-09-09T09:16:31;2.83;;;1.37;;
7195;SDS011;3639;51.308;5.624;2022-09-09T09:19:01;9.03;;;1.60;;
7195;SDS011;3639;51.308;5.624;2022-09-09T09:24:16;1.57;;;1.20;;
7195;SDS011;3639;51.308;5.624;2022-09-09T09:26:49;7.07;;;1.13;;
7195;SDS011;3639;51.308;5.624;2022-09-09T09:29:16;4.67;;;1.40;;
7195;SDS011;3639;51.308;5.624;2022-09-09T09:31:52;5.07;;;1.23;;
7195;SDS011;3639;51.308;5.624;2022-09-09T09:34:22;4.17;;;1.57;;
7195;SDS011;3639;51.308;5.624;2022-09-09T09:36:58;1.97;;;1.20;;
7195;SDS011;3639;51.308;5.624;2022-09-09T09:39:30;4.23;;;1.40;;
7195;SDS011;3639;51.308;5.624;2022-09-09T09:42:07;2.43;;;1.30;;
7195;SDS011;3639;51.308;5.624;2022-09-09T09:44:39;3.90;;;1.47;;
7195;SDS011;3639;51.308;5.624;2022-09-09T09:49:57;2.77;;;1.43;;
7195;SDS011;3639;51.308;5.624;2022-09-09T09:52:28;4.50;;;1.10;;
7195;SDS011;3639;51.308;5.624;2022-09-09T09:54:55;5.63;;;1.83;;
7195;SDS011;3639;51.308;5.624;2022-09-09T09:57:28;4.60;;;1.37;;
7195;SDS011;3639;51.308;5.624;2022-09-09T10:02:37;2.23;;;1.33;;
7195;SDS011;3639;51.308;5.624;2022-09-09T10:05:19;12.17;;;1.60;;
7195;SDS011;3639;51.308;5.624;2022-09-09T10:07:45;3.30;;;1.10;;
7195;SDS011;3639;51.308;5.624;2022-09-09T10:10:13;1.70;;;1.10;;
7195;SDS011;3639;51.308;5.624;2022-09-09T10:13:00;4.00;;;1.30;;
7195;SDS011;3639;51.308;5.624;2022-09-09T10:16:21;4.53;;;1.40;;
7195;SDS011;3639;51.308;5.624;2022-09-09T10:34:34;1.30;;;1.17;;
7195;SDS011;3639;51.308;5.624;2022-09-09T10:37:17;4.10;;;1.63;;
7195;SDS011;3639;51.308;5.624;2022-09-09T10:46:12;2.27;;;1.30;;
7195;SDS011;3639;51.308;5.624;2022-09-09T10:51:45;4.33;;;1.63;;
7195;SDS011;3639;51.308;5.624;2022-09-09T10:57:29;1.40;;;1.27;;
7195;SDS011;3639;51.308;5.624;2022-09-09T11:00:17;1.57;;;1.43;;
7195;SDS011;3639;51.308;5.624;2022-09-09T11:02:47;2.83;;;1.30;;
7195;SDS011;3639;51.308;5.624;2022-09-09T11:05:22;5.70;;;1.43;;
7195;SDS011;3639;51.308;5.624;2022-09-09T11:07:56;1.70;;;1.57;;
7195;SDS011;3639;51.308;5.624;2022-09-09T11:12:59;2.20;;;1.53;;
7195;SDS011;3639;51.308;5.624;2022-09-09T11:15:35;3.63;;;1.47;;
7195;SDS011;3639;51.308;5.624;2022-09-09T11:18:08;1.60;;;1.50;;
7195;SDS011;3639;51.308;5.624;2022-09-09T11:20:38;2.57;;;1.90;;
7195;SDS011;3639;51.308;5.624;2022-09-09T11:23:09;1.40;;;1.30;;
7195;SDS011;3639;51.308;5.624;2022-09-09T11:25:45;6.87;;;1.60;;
7195;SDS011;3639;51.308;5.624;2022-09-09T11:31:17;3.77;;;1.70;;
7195;SDS011;3639;51.308;5.624;2022-09-09T11:33:56;6.10;;;1.77;;
7195;SDS011;3639;51.308;5.624;2022-09-09T11:41:51;2.83;;;1.60;;
7195;SDS011;3639;51.308;5.624;2022-09-09T11:44:25;5.30;;;1.87;;
7195;SDS011;3639;51.308;5.624;2022-09-09T11:46:54;4.40;;;1.80;;
7195;SDS011;3639;51.308;5.624;2022-09-09T11:49:40;4.80;;;2.03;;
7195;SDS011;3639;51.308;5.624;2022-09-09T11:52:10;3.57;;;1.93;;
7195;SDS011;3639;51.308;5.624;2022-09-09T11:54:46;5.37;;;1.83;;
7195;SDS011;3639;51.308;5.624;2022-09-09T11:57:33;2.57;;;1.50;;
7195;SDS011;3639;51.308;5.624;2022-09-09T12:00:01;3.03;;;1.60;;
7195;SDS011;3639;51.308;5.624;2022-09-09T12:02:28;4.30;;;2.03;;
7195;SDS011;3639;51.308;5.624;2022-09-09T12:05:18;2.50;;;1.40;;
7195;SDS011;3639;51.308;5.624;2022-09-09T12:07:52;2.70;;;1.40;;
7195;SDS011;3639;51.308;5.624;2022-09-09T12:10:35;2.37;;;1.80;;
7195;SDS011;3639;51.308;5.624;2022-09-09T12:13:09;2.33;;;1.50;;
7195;SDS011;3639;51.308;5.624;2022-09-09T12:15:49;2.60;;;1.57;;
7195;SDS011;3639;51.308;5.624;2022-09-09T12:18:32;8.60;;;2.23;;
7195;SDS011;3639;51.308;5.624;2022-09-09T12:23:52;2.13;;;1.30;;
7195;SDS011;3639;51.308;5.624;2022-09-09T12:29:02;4.20;;;1.50;;
7195;SDS011;3639;51.308;5.624;2022-09-09T12:32:12;3.13;;;1.60;;
7195;SDS011;3639;51.308;5.624;2022-09-09T12:34:52;2.60;;;1.40;;
7195;SDS011;3639;51.308;5.624;2022-09-09T12:39:58;4.07;;;1.67;;
7195;SDS011;3639;51.308;5.624;2022-09-09T12:42:27;3.50;;;1.60;;
7195;SDS011;3639;51.308;5.624;2022-09-09T12:44:57;6.17;;;1.60;;
7195;SDS011;3639;51.308;5.624;2022-09-09T12:47:26;2.97;;;1.60;;
7195;SDS011;3639;51.308;5.624;2022-09-09T12:49:54;3.43;;;1.50;;
7195;SDS011;3639;51.308;5.624;2022-09-09T12:54:55;4.77;;;1.57;;
7195;SDS011;3639;51.308;5.624;2022-09-09T12:57:22;4.93;;;1.27;;
7195;SDS011;3639;51.308;5.624;2022-09-09T12:59:52;3.83;;;1.40;;
7195;SDS011;3639;51.308;5.624;2022-09-09T13:02:34;3.23;;;1.27;;
7195;SDS011;3639;51.308;5.624;2022-09-09T13:05:13;2.40;;;1.27;;
7195;SDS011;3639;51.308;5.624;2022-09-09T13:07:41;2.47;;;1.20;;
7195;SDS011;3639;51.308;5.624;2022-09-09T13:10:10;4.70;;;1.20;;
7195;SDS011;3639;51.308;5.624;2022-09-09T13:12:37;1.80;;;1.33;;
7195;SDS011;3639;51.308;5.624;2022-09-09T13:15:04;3.53;;;1.30;;
7195;SDS011;3639;51.308;5.624;2022-09-09T13:17:34;1.83;;;1.20;;
7195;SDS011;3639;51.308;5.624;2022-09-09T13:20:00;3.47;;;1.50;;
7195;SDS011;3639;51.308;5.624;2022-09-09T13:25:06;2.70;;;1.20;;
7195;SDS011;3639;51.308;5.624;2022-09-09T13:35:29;1.67;;;1.13;;
7195;SDS011;3639;51.308;5.624;2022-09-09T13:37:56;1.70;;;1.00;;
7195;SDS011;3639;51.308;5.624;2022-09-09T13:40:23;2.33;;;1.10;;
7195;SDS011;3639;51.308;5.624;2022-09-09T13:42:54;3.77;;;1.10;;
7195;SDS011;3639;51.308;5.624;2022-09-09T13:45:22;1.00;;;0.90;;
7195;SDS011;3639;51.308;5.624;2022-09-09T13:47:51;2.70;;;1.10;;
7195;SDS011;3639;51.308;5.624;2022-09-09T13:50:27;1.63;;;1.20;;
7195;SDS011;3639;51.308;5.624;2022-09-09T13:52:58;2.17;;;1.03;;
7195;SDS011;3639;51.308;5.624;2022-09-09T13:55:25;3.60;;;1.17;;
7195;SDS011;3639;51.308;5.624;2022-09-09T13:58:02;1.80;;;1.20;;
7195;SDS011;3639;51.308;5.624;2022-09-09T14:00:31;0.80;;;0.80;;
7195;SDS011;3639;51.308;5.624;2022-09-09T14:02:59;1.20;;;1.10;;
7195;SDS011;3639;51.308;5.624;2022-09-09T14:05:27;0.97;;;0.87;;
7195;SDS011;3639;51.308;5.624;2022-09-09T14:07:56;3.00;;;1.20;;
7195;SDS011;3639;51.308;5.624;2022-09-09T14:10:23;1.97;;;0.90;;
7195;SDS011;3639;51.308;5.624;2022-09-09T14:12:48;2.20;;;1.00;;
7195;SDS011;3639;51.308;5.624;2022-09-09T14:15:14;4.17;;;1.03;;
7195;SDS011;3639;51.308;5.624;2022-09-09T14:17:40;2.17;;;1.47;;
7195;SDS011;3639;51.308;5.624;2022-09-09T14:20:06;2.73;;;1.47;;
7195;SDS011;3639;51.308;5.624;2022-09-09T14:22:34;1.00;;;0.90;;
7195;SDS011;3639;51.308;5.624;2022-09-09T14:25:00;1.20;;;1.00;;
7195;SDS011;3639;51.308;5.624;2022-09-09T14:27:27;1.40;;;1.03;;
7195;SDS011;3639;51.308;5.624;2022-09-09T14:29:52;1.43;;;0.87;;
7195;SDS011;3639;51.308;5.624;2022-09-09T14:32:18;1.37;;;1.20;;
7195;SDS011;3639;51.308;5.624;2022-09-09T14:34:44;1.13;;;1.00;;
7195;SDS011;3639;51.308;5.624;2022-09-09T14:37:10;1.63;;;1.03;;
7195;SDS011;3639;51.308;5.624;2022-09-09T14:39:35;3.13;;;1.00;;
7195;SDS011;3639;51.308;5.624;2022-09-09T14:42:01;4.33;;;1.20;;
7195;SDS011;3639;51.308;5.624;2022-09-09T14:44:27;1.47;;;1.00;;
7195;SDS011;3639;51.308;5.624;2022-09-09T14:46:53;1.87;;;1.10;;
7195;SDS011;3639;51.308;5.624;2022-09-09T14:49:19;1.20;;;1.10;;
7195;SDS011;3639;51.308;5.624;2022-09-09T14:51:45;1.93;;;1.00;;
7195;SDS011;3639;51.308;5.624;2022-09-09T14:54:10;4.67;;;1.00;;
7195;SDS011;3639;51.308;5.624;2022-09-09T14:56:36;3.30;;;1.03;;
7195;SDS011;3639;51.308;5.624;2022-09-09T14:59:03;1.23;;;1.00;;
7195;SDS011;3639;51.308;5.624;2022-09-09T15:01:29;1.33;;;1.00;;
7195;SDS011;3639;51.308;5.624;2022-09-09T15:04:00;1.47;;;1.10;;
7195;SDS011;3639;51.308;5.624;2022-09-09T15:06:29;4.73;;;1.63;;
7195;SDS011;3639;51.308;5.624;2022-09-09T15:08:58;4.10;;;1.10;;
7195;SDS011;3639;51.308;5.624;2022-09-09T15:11:26;2.73;;;0.93;;
7195;SDS011;3639;51.308;5.624;2022-09-09T15:13:53;1.90;;;1.00;;
7195;SDS011;3639;51.308;5.624;2022-09-09T15:16:20;3.00;;;1.00;;
7195;SDS011;3639;51.308;5.624;2022-09-09T15:18:47;1.77;;;1.40;;
7195;SDS011;3639;51.308;5.624;2022-09-09T15:21:17;2.20;;;1.10;;
7195;SDS011;3639;51.308;5.624;2022-09-09T15:23:44;1.47;;;1.10;;
7195;SDS011;3639;51.308;5.624;2022-09-09T15:26:10;1.20;;;1.00;;
7195;SDS011;3639;51.308;5.624;2022-09-09T15:28:36;2.80;;;1.10;;
7195;SDS011;3639;51.308;5.624;2022-09-09T15:31:11;2.80;;;1.20;;
7195;SDS011;3639;51.308;5.624;2022-09-09T15:33:37;2.40;;;1.10;;
7195;SDS011;3639;51.308;5.624;2022-09-09T15:36:16;1.90;;;1.10;;
7195;SDS011;3639;51.308;5.624;2022-09-09T15:38:42;1.53;;;1.20;;
7195;SDS011;3639;51.308;5.624;2022-09-09T15:41:08;1.37;;;1.10;;
7195;SDS011;3639;51.308;5.624;2022-09-09T15:43:35;3.63;;;1.30;;
7195;SDS011;3639;51.308;5.624;2022-09-09T15:46:05;1.20;;;0.87;;
7195;SDS011;3639;51.308;5.624;2022-09-09T15:48:45;1.67;;;1.00;;
7195;SDS011;3639;51.308;5.624;2022-09-09T15:51:11;1.53;;;0.90;;
7195;SDS011;3639;51.308;5.624;2022-09-09T15:53:37;1.83;;;1.03;;
7195;SDS011;3639;51.308;5.624;2022-09-09T15:56:06;1.30;;;1.00;;
7195;SDS011;3639;51.308;5.624;2022-09-09T15:58:35;1.73;;;1.20;;
7195;SDS011;3639;51.308;5.624;2022-09-09T16:01:05;1.00;;;0.90;;
7195;SDS011;3639;51.308;5.624;2022-09-09T16:03:35;2.23;;;1.10;;
7195;SDS011;3639;51.308;5.624;2022-09-09T16:06:02;1.17;;;0.90;;
7195;SDS011;3639;51.308;5.624;2022-09-09T16:08:33;1.33;;;0.93;;
7195;SDS011;3639;51.308;5.624;2022-09-09T16:11:09;2.40;;;0.93;;
7195;SDS011;3639;51.308;5.624;2022-09-09T16:13:41;2.60;;;0.90;;
7195;SDS011;3639;51.308;5.624;2022-09-09T16:16:09;2.40;;;1.00;;
7195;SDS011;3639;51.308;5.624;2022-09-09T16:18:37;1.23;;;1.10;;
7195;SDS011;3639;51.308;5.624;2022-09-09T16:21:08;1.93;;;1.20;;
7195;SDS011;3639;51.308;5.624;2022-09-09T16:23:42;1.73;;;1.50;;
7195;SDS011;3639;51.308;5.624;2022-09-09T16:26:10;1.43;;;1.33;;
7195;SDS011;3639;51.308;5.624;2022-09-09T16:28:37;2.13;;;1.27;;
7195;SDS011;3639;51.308;5.624;2022-09-09T16:31:04;1.17;;;1.00;;
7195;SDS011;3639;51.308;5.624;2022-09-09T16:33:35;0.93;;;0.90;;
7195;SDS011;3639;51.308;5.624;2022-09-09T16:36:08;2.40;;;1.10;;
7195;SDS011;3639;51.308;5.624;2022-09-09T16:38:37;1.70;;;1.13;;
7195;SDS011;3639;51.308;5.624;2022-09-09T16:41:03;1.10;;;1.00;;
7195;SDS011;3639;51.308;5.624;2022-09-09T16:43:33;1.57;;;1.00;;
7195;SDS011;3639;51.308;5.624;2022-09-09T16:46:00;1.17;;;0.90;;
7195;SDS011;3639;51.308;5.624;2022-09-09T16:48:30;1.10;;;1.00;;
7195;SDS011;3639;51.308;5.624;2022-09-09T16:51:04;1.67;;;1.07;;
7195;SDS011;3639;51.308;5.624;2022-09-09T16:53:31;2.07;;;1.10;;
7195;SDS011;3639;51.308;5.624;2022-09-09T16:55:57;1.67;;;1.23;;
7195;SDS011;3639;51.308;5.624;2022-09-09T16:58:23;1.73;;;1.23;;
7195;SDS011;3639;51.308;5.624;2022-09-09T17:00:48;4.90;;;1.37;;
7195;SDS011;3639;51.308;5.624;2022-09-09T17:03:16;1.20;;;1.10;;
7195;SDS011;3639;51.308;5.624;2022-09-09T17:05:41;2.40;;;1.30;;
7195;SDS011;3639;51.308;5.624;2022-09-09T17:08:07;2.10;;;1.33;;
7195;SDS011;3639;51.308;5.624;2022-09-09T17:10:33;4.13;;;1.30;;
7195;SDS011;3639;51.308;5.624;2022-09-09T17:12:58;1.20;;;1.03;;
7195;SDS011;3639;51.308;5.624;2022-09-09T17:15:24;2.50;;;0.90;;
7195;SDS011;3639;51.308;5.624;2022-09-09T17:17:50;2.23;;;1.10;;
7195;SDS011;3639;51.308;5.624;2022-09-09T17:20:18;1.07;;;0.97;;
7195;SDS011;3639;51.308;5.624;2022-09-09T17:22:44;1.50;;;1.20;;
7195;SDS011;3639;51.308;5.624;2022-09-09T17:25:10;1.63;;;1.10;;
7195;SDS011;3639;51.308;5.624;2022-09-09T17:27:36;1.70;;;1.10;;
7195;SDS011;3639;51.308;5.624;2022-09-09T17:30:02;1.20;;;1.10;;
7195;SDS011;3639;51.308;5.624;2022-09-09T17:32:28;1.10;;;1.00;;
7195;SDS011;3639;51.308;5.624;2022-09-09T17:34:55;3.23;;;1.23;;
7195;SDS011;3639;51.308;5.624;2022-09-09T17:37:20;1.67;;;1.17;;
7195;SDS011;3639;51.308;5.624;2022-09-09T17:39:46;2.57;;;1.03;;
7195;SDS011;3639;51.308;5.624;2022-09-09T17:42:12;1.27;;;1.13;;
7195;SDS011;3639;51.308;5.624;2022-09-09T17:44:38;1.20;;;1.00;;